createdAt,value
2023-03-29T00:02:34.331Z,3.00
2023-03-29T00:05:41.141Z,2.60
2023-03-29T00:08:46.139Z,2.65
2023-03-29T00:11:51.354Z,3.10
2023-03-29T00:14:55.276Z,3.30
2023-03-29T00:17:59.337Z,3.20
2023-03-29T00:21:03.313Z,3.50
2023-03-29T00:24:07.963Z,3.53
2023-03-29T00:27:13.124Z,3.70
2023-03-29T00:30:17.519Z,3.17
2023-03-29T00:33:22.837Z,3.25
2023-03-29T00:36:27.827Z,3.03
2023-03-29T00:39:31.996Z,3.50
2023-03-29T00:42:37.517Z,2.78
2023-03-29T00:45:42.276Z,3.90
2023-03-29T00:48:46.593Z,3.33
2023-03-29T00:51:50.700Z,3.55
2023-03-29T00:54:59.769Z,2.78
2023-03-29T00:58:13.127Z,3.53
2023-03-29T01:01:26.023Z,3.10
2023-03-29T01:04:36.506Z,3.00
2023-03-29T01:07:53.678Z,2.23
2023-03-29T01:11:06.784Z,2.83
2023-03-29T01:14:23.675Z,3.10
2023-03-29T01:17:27.562Z,3.42
2023-03-29T01:21:03.374Z,3.15
2023-03-29T01:24:53.081Z,2.92
2023-03-29T01:28:05.114Z,2.80
2023-03-29T01:31:16.001Z,3.40
2023-03-29T01:34:27.334Z,2.92
2023-03-29T01:37:39.671Z,3.53
2023-03-29T01:40:43.936Z,2.77
2023-03-29T01:43:57.945Z,3.20
2023-03-29T01:47:12.665Z,2.65
2023-03-29T01:50:23.301Z,3.22
2023-03-29T01:53:37.618Z,3.00
2023-03-29T01:56:48.385Z,3.40
2023-03-29T01:59:57.784Z,3.78
2023-03-29T02:03:10.525Z,3.10
2023-03-29T02:06:21.938Z,3.10
2023-03-29T02:09:25.533Z,3.58
2023-03-29T02:12:29.879Z,4.05
2023-03-29T02:15:35.172Z,3.63
2023-03-29T02:18:41.320Z,4.13
2023-03-29T02:21:55.109Z,3.30
2023-03-29T02:25:04.753Z,4.43
2023-03-29T02:28:09.039Z,3.65
2023-03-29T02:31:24.134Z,3.50
2023-03-29T02:34:37.692Z,3.60
2023-03-29T02:37:49.520Z,3.67
2023-03-29T02:40:55.293Z,2.90
2023-03-29T02:44:04.214Z,3.10
2023-03-29T02:47:20.001Z,3.28
2023-03-29T02:50:26.647Z,3.40
2023-03-29T02:53:41.293Z,3.65
2023-03-29T02:56:47.756Z,3.58
2023-03-29T02:59:51.575Z,2.67
2023-03-29T03:02:57.467Z,2.97
2023-03-29T03:06:02.677Z,3.10
2023-03-29T03:09:09.864Z,3.80
2023-03-29T03:12:16.348Z,3.88
2023-03-29T03:15:20.947Z,3.80
2023-03-29T03:18:26.069Z,4.15
2023-03-29T03:21:29.826Z,4.22
2023-03-29T03:24:33.722Z,4.18
2023-03-29T03:27:38.098Z,4.53
2023-03-29T03:30:41.769Z,4.88
2023-03-29T03:33:56.662Z,3.83
2023-03-29T03:37:13.121Z,4.70
2023-03-29T03:40:17.447Z,4.85
2023-03-29T03:43:21.473Z,4.07
2023-03-29T03:46:29.675Z,4.63
2023-03-29T03:49:35.904Z,5.93
2023-03-29T03:52:39.836Z,5.53
2023-03-29T03:55:49.116Z,6.03
2023-03-29T03:58:58.255Z,6.40
2023-03-29T04:02:03.144Z,7.05
2023-03-29T04:05:08.990Z,7.95
2023-03-29T04:08:16.670Z,6.37
2023-03-29T04:11:39.147Z,7.18
2023-03-29T04:14:43.586Z,7.75
2023-03-29T04:17:53.651Z,8.20
2023-03-29T04:21:04.178Z,9.68
2023-03-29T04:24:10.608Z,10.35
2023-03-29T04:27:17.093Z,9.57
2023-03-29T04:30:21.339Z,10.63
2023-03-29T04:33:51.673Z,13.10
2023-03-29T04:36:58.770Z,13.05
2023-03-29T04:40:02.578Z,12.20
2023-03-29T04:43:14.418Z,13.80
2023-03-29T04:46:28.590Z,13.55
2023-03-29T04:49:42.607Z,13.20
2023-03-29T04:52:55.671Z,13.35
2023-03-29T04:55:59.952Z,14.25
2023-03-29T04:59:29.281Z,15.15
2023-03-29T05:02:33.325Z,14.10
2023-03-29T05:05:37.055Z,13.13
2023-03-29T05:08:42.483Z,13.48
2023-03-29T05:11:54.619Z,11.00
2023-03-29T05:14:59.941Z,13.30
2023-03-29T05:18:05.710Z,13.23
2023-03-29T05:21:09.521Z,14.40
2023-03-29T05:24:16.694Z,13.25
2023-03-29T05:27:45.905Z,13.60
2023-03-29T05:31:02.480Z,13.65
2023-03-29T05:34:07.614Z,12.07
2023-03-29T05:37:16.318Z,12.07
2023-03-29T05:40:31.435Z,13.52
2023-03-29T05:43:49.936Z,12.60
2023-03-29T05:46:54.444Z,13.15
2023-03-29T05:49:58.482Z,12.88
2023-03-29T05:53:02.126Z,13.07
2023-03-29T05:56:10.781Z,12.93
2023-03-29T05:59:14.903Z,14.18
2023-03-29T06:02:19.532Z,14.18
2023-03-29T06:05:29.374Z,12.30
2023-03-29T06:08:37.740Z,13.00
2023-03-29T06:12:06.506Z,11.52
2023-03-29T06:15:17.102Z,12.00
2023-03-29T06:18:24.626Z,11.30
2023-03-29T06:21:28.574Z,11.90
2023-03-29T06:24:32.508Z,12.43
2023-03-29T06:27:43.142Z,13.45
2023-03-29T06:30:49.068Z,9.70
2023-03-29T06:33:52.893Z,9.18
2023-03-29T06:37:23.290Z,7.55
2023-03-29T06:40:37.402Z,6.43
2023-03-29T06:43:42.538Z,7.97
2023-03-29T06:46:51.828Z,7.53
2023-03-29T06:49:55.642Z,8.75
2023-03-29T06:53:11.578Z,8.43
2023-03-29T06:56:17.608Z,7.47
2023-03-29T06:59:33.399Z,5.90
2023-03-29T07:02:52.216Z,6.38
2023-03-29T07:06:04.084Z,7.28
2023-03-29T07:09:10.564Z,5.45
2023-03-29T07:12:38.312Z,5.45
2023-03-29T07:15:45.248Z,5.05
2023-03-29T07:18:51.711Z,4.37
2023-03-29T07:22:18.561Z,4.43
2023-03-29T07:25:30.941Z,4.03
2023-03-29T07:28:37.481Z,3.93
2023-03-29T07:31:43.868Z,3.70
2023-03-29T07:35:10.166Z,4.68
2023-03-29T07:38:15.541Z,3.88
2023-03-29T07:41:24.793Z,2.40
2023-03-29T07:44:35.637Z,2.60
2023-03-29T07:47:41.097Z,1.85
2023-03-29T07:50:45.207Z,2.03
2023-03-29T07:53:49.738Z,2.42
2023-03-29T07:57:08.158Z,1.90
2023-03-29T08:00:20.273Z,2.00
2023-03-29T08:03:40.589Z,1.10
2023-03-29T08:06:44.381Z,1.23
2023-03-29T08:09:48.586Z,2.20
2023-03-29T08:12:53.672Z,1.80
2023-03-29T08:16:05.889Z,1.90
2023-03-29T08:19:16.635Z,1.60
2023-03-29T08:22:38.916Z,1.60
2023-03-29T08:25:56.308Z,2.17
2023-03-29T08:29:00.535Z,1.85
2023-03-29T08:32:04.782Z,1.97
2023-03-29T08:35:11.308Z,2.33
2023-03-29T08:38:33.815Z,1.52
2023-03-29T08:42:00.126Z,1.70
2023-03-29T08:45:20.482Z,1.83
2023-03-29T08:48:31.074Z,1.27
2023-03-29T08:51:43.999Z,1.23
2023-03-29T08:54:51.896Z,1.30
2023-03-29T08:58:09.445Z,1.20
2023-03-29T09:01:14.281Z,1.15
2023-03-29T09:04:31.673Z,1.67
2023-03-29T09:07:48.533Z,1.27
2023-03-29T09:11:17.976Z,1.75
2023-03-29T09:15:00.845Z,1.30
2023-03-29T09:18:21.249Z,1.35
2023-03-29T09:21:34.679Z,1.63
2023-03-29T09:25:07.444Z,2.15
2023-03-29T09:28:20.545Z,1.90
2023-03-29T09:31:37.233Z,1.48
2023-03-29T09:34:50.451Z,1.70
2023-03-29T09:37:57.831Z,1.90
2023-03-29T09:41:24.708Z,1.58
2023-03-29T09:44:34.428Z,1.90
2023-03-29T09:47:51.120Z,1.95
2023-03-29T09:50:55.250Z,1.48
2023-03-29T09:54:00.701Z,1.02
2023-03-29T09:57:21.228Z,1.50
2023-03-29T10:00:26.046Z,1.20
2023-03-29T10:03:32.243Z,1.27
2023-03-29T10:06:50.440Z,1.60
2023-03-29T10:09:57.145Z,1.70
2023-03-29T10:13:13.455Z,1.75
2023-03-29T10:16:23.823Z,1.92
2023-03-29T10:19:34.514Z,1.55
2023-03-29T10:22:41.145Z,2.10
2023-03-29T10:25:45.660Z,1.63
2023-03-29T10:28:57.082Z,2.10
2023-03-29T10:32:00.850Z,1.83
2023-03-29T10:35:11.811Z,2.00
2023-03-29T10:38:19.701Z,1.75
2023-03-29T10:41:25.021Z,2.73
2023-03-29T10:44:34.973Z,1.92
2023-03-29T10:47:38.779Z,1.40
2023-03-29T10:50:43.513Z,1.60
2023-03-29T10:53:47.579Z,1.52
2023-03-29T10:56:58.081Z,1.50
2023-03-29T11:00:17.635Z,1.48
2023-03-29T11:03:52.156Z,1.37
2023-03-29T11:07:22.529Z,1.58
2023-03-29T11:10:41.982Z,1.35
2023-03-29T11:13:59.799Z,1.63
2023-03-29T11:17:30.027Z,1.40
2023-03-29T11:20:44.584Z,1.90
2023-03-29T11:24:01.824Z,1.52
2023-03-29T11:27:27.656Z,1.52
2023-03-29T11:30:46.048Z,1.10
2023-03-29T11:34:08.472Z,1.48
2023-03-29T11:37:24.741Z,1.17
2023-03-29T11:40:50.515Z,1.48
2023-03-29T11:44:03.657Z,1.40
2023-03-29T11:47:15.116Z,1.33
2023-03-29T11:50:27.504Z,1.40
2023-03-29T11:53:40.674Z,1.63
2023-03-29T11:56:52.225Z,1.35
2023-03-29T12:00:05.246Z,1.13
2023-03-29T12:03:34.058Z,1.33
2023-03-29T12:06:49.386Z,1.30
2023-03-29T12:10:00.223Z,1.30
2023-03-29T12:13:12.580Z,1.20
2023-03-29T12:16:24.128Z,1.17
2023-03-29T12:19:39.643Z,1.20
2023-03-29T12:22:51.049Z,1.17
2023-03-29T12:26:05.385Z,1.15
2023-03-29T12:29:31.947Z,1.40
2023-03-29T12:32:57.516Z,1.20
2023-03-29T12:37:10.431Z,0.90
2023-03-29T12:40:29.051Z,1.30
2023-03-29T12:44:05.298Z,0.97
2023-03-29T12:47:44.668Z,1.05
2023-03-29T12:50:54.018Z,1.30
2023-03-29T12:54:08.468Z,0.87
2023-03-29T12:57:28.166Z,0.90
2023-03-29T13:00:44.302Z,0.95
2023-03-29T13:03:53.052Z,1.33
2023-03-29T13:07:06.094Z,0.88
2023-03-29T13:10:26.476Z,1.10
2023-03-29T13:13:36.711Z,1.10
2023-03-29T13:16:43.073Z,1.30
2023-03-29T13:20:01.563Z,1.20
2023-03-29T13:23:32.884Z,1.00
2023-03-29T13:26:57.332Z,1.00
2023-03-29T13:30:26.756Z,1.05
2023-03-29T13:33:58.255Z,1.20
2023-03-29T13:37:24.215Z,1.08
2023-03-29T13:40:48.121Z,1.13
2023-03-29T13:43:55.832Z,0.95
2023-03-29T13:47:17.505Z,0.98
2023-03-29T13:50:35.754Z,1.10
2023-03-29T13:53:46.870Z,1.10
2023-03-29T13:57:11.182Z,0.95
2023-03-29T14:00:23.112Z,1.00
2023-03-29T14:03:31.926Z,1.33
2023-03-29T14:06:39.520Z,1.10
2023-03-29T14:09:50.403Z,1.02
2023-03-29T14:12:56.645Z,1.30
2023-03-29T14:16:05.350Z,1.30
2023-03-29T14:19:19.397Z,1.40
2023-03-29T14:22:23.408Z,1.80
2023-03-29T14:25:30.357Z,2.25
2023-03-29T14:28:34.944Z,1.40
2023-03-29T14:31:41.930Z,1.37
2023-03-29T14:34:51.121Z,1.63
2023-03-29T14:37:55.064Z,1.77
2023-03-29T14:41:02.054Z,1.45
2023-03-29T14:44:08.211Z,1.40
2023-03-29T14:47:22.174Z,1.60
2023-03-29T14:50:31.585Z,1.60
2023-03-29T14:53:39.029Z,1.80
2023-03-29T14:56:42.909Z,1.90
2023-03-29T14:59:55.741Z,2.00
2023-03-29T15:03:02.962Z,1.63
2023-03-29T15:06:09.137Z,1.57
2023-03-29T15:09:20.297Z,1.67
2023-03-29T15:12:24.406Z,1.70
2023-03-29T15:15:28.784Z,2.05
2023-03-29T15:18:39.940Z,1.70
2023-03-29T15:21:48.848Z,1.88
2023-03-29T15:24:52.613Z,2.03
2023-03-29T15:28:00.957Z,1.70
2023-03-29T15:31:12.891Z,2.80
2023-03-29T15:34:27.921Z,2.05
2023-03-29T15:37:33.566Z,2.53
2023-03-29T15:40:37.351Z,2.17
2023-03-29T15:43:41.542Z,2.03
2023-03-29T15:46:45.561Z,2.10
2023-03-29T15:49:49.432Z,2.42
2023-03-29T15:53:08.619Z,2.85
2023-03-29T15:56:20.336Z,2.67
2023-03-29T15:59:24.467Z,2.60
2023-03-29T16:02:28.694Z,2.60
2023-03-29T16:05:32.706Z,3.15
2023-03-29T16:08:38.206Z,2.50
2023-03-29T16:11:44.407Z,2.97
2023-03-29T16:14:48.001Z,2.15
2023-03-29T16:17:51.841Z,2.58
2023-03-29T16:20:56.958Z,1.80
2023-03-29T16:24:02.994Z,2.23
2023-03-29T16:27:07.001Z,2.28
2023-03-29T16:30:12.906Z,2.25
2023-03-29T16:33:16.742Z,2.35
2023-03-29T16:36:20.647Z,2.30
2023-03-29T16:39:25.635Z,2.78
2023-03-29T16:42:29.301Z,2.92
2023-03-29T16:45:33.123Z,2.43
2023-03-29T16:48:37.365Z,3.08
2023-03-29T16:51:41.133Z,3.05
2023-03-29T16:54:46.916Z,3.00
2023-03-29T16:57:51.272Z,3.33
2023-03-29T17:00:56.215Z,4.78
2023-03-29T17:03:59.925Z,7.07
2023-03-29T17:07:03.764Z,9.63
2023-03-29T17:10:10.719Z,9.38
2023-03-29T17:13:15.078Z,8.55
2023-03-29T17:16:19.132Z,9.67
2023-03-29T17:19:23.482Z,9.38
2023-03-29T17:22:27.829Z,9.65
2023-03-29T17:25:33.024Z,7.57
2023-03-29T17:28:37.302Z,6.78
2023-03-29T17:31:46.951Z,7.15
2023-03-29T17:34:51.606Z,6.47
2023-03-29T17:37:55.837Z,6.35
2023-03-29T17:41:01.276Z,7.15
2023-03-29T17:44:05.355Z,7.15
2023-03-29T17:47:09.395Z,7.50
2023-03-29T17:50:14.346Z,7.68
2023-03-29T17:53:18.245Z,8.23
2023-03-29T17:56:24.434Z,8.03
2023-03-29T17:59:28.530Z,8.73
2023-03-29T18:02:32.746Z,9.60
2023-03-29T18:05:37.830Z,9.52
2023-03-29T18:08:41.994Z,10.60
2023-03-29T18:11:47.447Z,12.15
2023-03-29T18:14:51.826Z,12.75
2023-03-29T18:17:55.934Z,13.37
2023-03-29T18:21:02.654Z,13.63
2023-03-29T18:24:07.190Z,13.07
2023-03-29T18:27:13.207Z,13.93
2023-03-29T18:30:17.432Z,12.90
2023-03-29T18:33:21.458Z,13.02
2023-03-29T18:36:26.447Z,14.43
2023-03-29T18:39:31.992Z,13.10
2023-03-29T18:42:37.660Z,13.27
2023-03-29T18:45:41.812Z,13.93
2023-03-29T18:48:46.309Z,13.87
2023-03-29T18:51:51.747Z,15.55
2023-03-29T18:54:58.379Z,15.15
2023-03-29T18:58:03.612Z,16.40
2023-03-29T19:01:09.760Z,14.43
2023-03-29T19:04:16.376Z,14.73
2023-03-29T19:07:21.043Z,14.73
2023-03-29T19:10:25.631Z,16.33
2023-03-29T19:13:31.039Z,18.50
2023-03-29T19:16:34.939Z,17.93
2023-03-29T19:19:38.867Z,19.17
2023-03-29T19:22:42.543Z,17.70
2023-03-29T19:25:53.673Z,15.98
2023-03-29T19:28:59.018Z,15.70
2023-03-29T19:32:02.671Z,15.10
2023-03-29T19:35:09.655Z,15.63
2023-03-29T19:38:13.821Z,16.20
2023-03-29T19:41:17.612Z,16.47
2023-03-29T19:44:23.628Z,17.55
2023-03-29T19:47:28.181Z,15.93
2023-03-29T19:50:32.726Z,14.87
2023-03-29T19:53:38.712Z,16.83
2023-03-29T19:56:43.122Z,14.52
2023-03-29T19:59:48.664Z,15.47
2023-03-29T20:02:52.539Z,14.25
2023-03-29T20:05:57.046Z,12.75
2023-03-29T20:09:00.578Z,11.60
2023-03-29T20:12:04.934Z,10.50
2023-03-29T20:15:11.893Z,12.35
2023-03-29T20:18:15.820Z,12.57
2023-03-29T20:21:19.607Z,13.20
2023-03-29T20:24:23.988Z,11.85
2023-03-29T20:27:29.532Z,10.70
2023-03-29T20:30:35.111Z,12.35
2023-03-29T20:33:39.337Z,10.60
2023-03-29T20:36:43.860Z,11.63
2023-03-29T20:39:47.721Z,11.55
2023-03-29T20:42:51.506Z,11.40
2023-03-29T20:45:57.157Z,11.60
2023-03-29T20:49:01.600Z,10.80
2023-03-29T20:52:08.628Z,11.90
2023-03-29T20:55:13.533Z,12.13
2023-03-29T20:58:17.139Z,9.55
2023-03-29T21:01:22.411Z,11.05
2023-03-29T21:04:26.688Z,10.32
2023-03-29T21:07:31.304Z,10.23
2023-03-29T21:10:36.617Z,11.23
2023-03-29T21:13:40.815Z,11.80
2023-03-29T21:16:47.443Z,12.20
2023-03-29T21:19:51.972Z,12.32
2023-03-29T21:22:55.970Z,12.30
2023-03-29T21:25:59.833Z,12.57
2023-03-29T21:29:03.600Z,13.80
2023-03-29T21:32:09.048Z,11.63
2023-03-29T21:35:14.036Z,11.10
2023-03-29T21:38:18.922Z,10.82
2023-03-29T21:41:22.377Z,12.10
2023-03-29T21:44:26.980Z,12.93
2023-03-29T21:47:32.245Z,12.32
2023-03-29T21:50:36.310Z,11.60
2023-03-29T21:53:40.077Z,11.50
2023-03-29T21:56:45.505Z,10.45
2023-03-29T21:59:49.277Z,10.93
2023-03-29T22:02:54.448Z,10.65
2023-03-29T22:06:00.505Z,10.65
2023-03-29T22:09:05.158Z,11.27
2023-03-29T22:12:10.696Z,11.13
2023-03-29T22:15:15.099Z,12.33
2023-03-29T22:18:20.909Z,11.90
2023-03-29T22:21:28.313Z,12.20
2023-03-29T22:24:31.811Z,11.73
2023-03-29T22:27:35.655Z,11.88
2023-03-29T22:30:39.166Z,10.13
2023-03-29T22:33:45.116Z,10.18
2023-03-29T22:36:48.725Z,8.88
2023-03-29T22:39:52.568Z,10.40
2023-03-29T22:42:56.204Z,8.15
2023-03-29T22:46:00.152Z,8.77
2023-03-29T22:49:06.245Z,7.53
2023-03-29T22:52:10.415Z,7.97
2023-03-29T22:55:14.228Z,7.70
2023-03-29T22:58:18.136Z,6.28
2023-03-29T23:01:21.809Z,7.47
2023-03-29T23:04:27.228Z,6.50
2023-03-29T23:07:31.250Z,5.43
2023-03-29T23:10:35.480Z,5.57
2023-03-29T23:13:39.219Z,4.82
2023-03-29T23:16:43.321Z,6.17
2023-03-29T23:19:48.647Z,5.07
2023-03-29T23:22:53.005Z,5.78
2023-03-29T23:25:57.884Z,4.87
2023-03-29T23:29:02.334Z,4.88
2023-03-29T23:32:06.580Z,4.78
2023-03-29T23:35:11.825Z,4.55
2023-03-29T23:38:15.868Z,4.50
2023-03-29T23:41:20.371Z,4.40
2023-03-29T23:44:24.337Z,4.00
2023-03-29T23:47:28.779Z,4.37
2023-03-29T23:50:34.135Z,4.60
2023-03-29T23:53:38.256Z,3.58
2023-03-29T23:56:42.070Z,3.97
2023-03-29T23:59:46.219Z,4.10
